Weather observations for the past three days for
Juneau, Dodge County Airport
Metric (Imperial)
Date Time (cdt) Wind (kph) Vis. (km) Weather Sky Cond. Temperature (ºC) Relative Humidity Wind Chill (°C) Heat Index (°C) Pressure Precipitation (cm)
Air Dwpt 6 hour altimeter (cm) sea level (mb) 1 hr 3 hr 6 hr
Max. Min.
06 01:43 SW 6 16.09 Fair CLR 1.2 -6.3 58% 75.87 0.0 0.43
05 23:35 Calm 16.09 Fair CLR 4.8 -8.5 38% 75.87 0.0
05 23:15 N 6 16.09 Fair CLR 5.6 -9.5 33% 75.87 0.0
05 22:58 N 6 16.09 Fair CLR 5.9 -9.4 33% 75.87 0.0
05 22:31 N 6 16.09 Fair CLR 6 -9.3 33% 75.87 0.0
05 22:24 N 6 16.09 Fair CLR 5.9 -9 34% 75.87 0.0
05 21:34 N 9 16.09 Fair CLR 6.7 -9.7 30% 5 75.82 0.0
05 21:19 N 11 16.09 Fair CLR 7 -10.6 28% 5 75.82 0.0
05 20:18 NW 9 16.09 Fair CLR 7.8 -11.2 25% 6 75.74 0.0
05 19:56 NW 13 16.09 Partly Cloudy SCT075 8.8 -13.3 20% 7 75.72 0.0
05 19:35 NW 22 G 31 16.09 Partly Cloudy SCT075 9.7 -14 17% 7 75.69 0.0
05 19:09 NW 17 G 30 16.09 Partly Cloudy SCT075 10.7 -14.6 15% 75.69 0.0
05 18:35 W 13 16.09 Fair CLR 11.2 -16 13% 75.69 0.0
05 18:02 W 17 G 28 16.09 Fair CLR 11.5 -16.9 12% 75.69 0.0
05 17:11 W 9 G 26 16.09 Fair CLR 12.3 -17.7 11% 75.64 0.0
05 16:37 W 19 G 30 16.09 Partly Cloudy SCT080 12.7 -16.2 12% 75.64 0.0
05 16:16 NW 17 G 35 16.09 Partly Cloudy SCT080 12.9 -15.4 12% 75.64 0.0
05 15:34 NW 24 G 33 16.09 Fair CLR 12.5 -17.5 11% 75.67 0.0
05 15:20 W 22 G 37 16.09 Fair CLR 12.5 -17 11% 75.67 0.0
05 14:36 W 19 G 39 16.09 Fair CLR 11.9 -16.9 12% 75.67 0.0
05 14:13 NW 19 G 33 16.09 Fair CLR 12.3 -15.1 13% 75.67 0.0
05 13:38 W 22 G 33 16.09 Fair CLR 12.2 -16.5 12% 75.64 0.0
05 13:21 NW 22 G 30 16.09 Fair CLR 11.8 -14.8 14% 75.64 0.0
05 12:48 W 26 G 39 16.09 Fair CLR 11.2 -15.2 14% 75.64 0.0
05 12:31 W 17 G 35 16.09 Fair CLR 11.1 -17.2 12% 75.67 0.0
05 12:17 W 19 G 35 16.09 Fair CLR 10.9 -14.6 15% 75.67 0.0
05 11:33 W 20 G 31 16.09 Partly Cloudy SCT060 10.4 -11.4 21% 75.64 0.0
05 09:41 W 17 16.09 Fair CLR 7.9 -8.3 31% 5 75.67 0.0
05 09:24 W 17 16.09 Fair CLR 7.5 -7.9 33% 5 75.67 0.0
05 08:26 W 19 G 28 16.09 Overcast OVC060 7.3 -7.3 35% 4 75.67 0.0 0.03
05 08:15 W 17 16.09 Overcast OVC060 7.6 -7.7 33% 5 75.67 0.0 0.03
05 07:51 W 11 16.09 Mostly Cloudy BKN060 7.4 -6.8 36% 6 75.67 0.0
05 07:38 SW 11 16.09 Partly Cloudy SCT060 7.3 -6.1 38% 5 75.67 0.0
05 07:15 SW 11 16.09 Fair CLR 5.9 -5.8 43% 4 75.62 0.0
05 06:55 SW 6 16.09 Fair CLR 4.8 -5.7 9.4 2.9 47% 75.57 0.0 0.08
05 06:16 SW 6 16.09 Fair CLR 3 -6.9 49% 75.54 0.0
05 05:48 SW 7 16.09 Fair CLR 3 -6.6 50% 1 75.54 0.0
05 05:29 Calm 16.09 Fair CLR 4 -7.4 44% 75.51 0.0
05 04:17 NW 6 16.09 Fair CLR 5.5 -9.5 33% 75.49 0.0
05 03:46 NW 11 16.09 Fair CLR 6.4 -10.9 28% 4 75.46 0.0
05 03:32 NW 15 G 28 16.09 Fair CLR 6.7 -11.3 27% 4 75.44 0.0
05 02:50 NW 11 16.09 Fair CLR 6.6 -8.8 33% 5 75.36 0.0 0.08
05 02:36 NW 11 16.09 Fair CLR 6.7 -8.5 33% 5 75.36 0.0
05 01:15 NW 15 16.09 Fair CLR 8.5 -6.3 35% 6 75.34 0.0
05 00:12 NW 17 G 30 16.09 Partly Cloudy SCT080 10.3 -6.2 31% 75.23 0.0
04 21:55 W 13 G 31 16.09 Partly Cloudy SCT120 14.5 -13.7 13% 75.06 0.0
04 20:59 W 9 16.09 Fair CLR 15.2 -6.6 22% 74.96 0.0
04 19:15 W 15 G 26 16.09 Fair CLR 18.7 -8.2 15% 74.8 0.0
04 17:07 SW 33 G 39 16.09 Partly Cloudy and Breezy SCT110 23.8 -6.1 13% 74.68 0.0
04 16:58 SW 30 G 54 16.09 Partly Cloudy SCT100 24.2 -7.6 11% 24 74.68 0.0
04 16:06 SW 28 G 54 16.09 Mostly Cloudy SCT100 BKN120 24 -5.9 13% 24 74.7 0.0
04 15:55 SW 33 G 56 16.09 Partly Cloudy and Breezy SCT100 SCT120 24.2 -6.8 12% 24 74.7 0.0
04 15:14 SW 46 G 56 16.09 Partly Cloudy and Windy SCT110 24.1 -6.4 13% 24 74.73 0.0
04 14:16 SW 43 G 57 16.09 Partly Cloudy and Windy SCT090 23.6 -7.7 12% 74.75 0.0
04 13:59 SW 39 G 50 16.09 Partly Cloudy and Breezy SCT090 23.8 -7.7 12% 74.78 0.0
04 13:27 SW 41 G 57 16.09 Partly Cloudy and Breezy SCT090 24 -9.9 10% 24 74.78 0.0
04 12:01 SW 50 G 59 16.09 Fair and Windy CLR 23.1 -9.9 10% 74.83 0.0
04 11:28 SW 43 G 54 16.09 Fair and Windy CLR 22.5 -9.3 11% 74.85 0.0
04 10:56 SW 31 16.09 Fair CLR 21.8 -6.5 14% 74.9 0.0
04 10:19 SW 39 G 48 16.09 Fair and Breezy CLR 20.6 -7 15% 74.93 0.0
04 09:38 SW 28 16.09 Fair CLR 18.7 -3 23% 74.98 0.0
04 09:15 S 28 G 33 16.09 Fair CLR 17.2 -3.1 25% 75.01 0.0
04 08:38 S 24 16.09 Fair CLR 15 -1.5 32% 75.06 0.0 0.03
04 08:10 S 20 16.09 Fair CLR 13.2 -0.5 39% 75.08 0.0
04 07:55 S 20 16.09 Fair CLR 12.1 -0.4 42% 75.08 0.0
04 07:30 S 17 16.09 Fair CLR 11 -0.1 47% 75.11 0.0
04 06:56 S 15 16.09 Fair CLR 9.6 -0.8 10.1 6 49% 8 75.11 0.0
04 06:22 S 13 16.09 Fair CLR 6.6 -1.5 57% 4 75.11 0.0
04 04:23 S 7 16.09 Fair CLR 7.5 -1.4 54% 6 75.18 0.0
04 03:02 SW 6 16.09 Fair CLR 8.1 -0.8 54% 75.23 0.0
04 02:27 SW 7 16.09 Fair CLR 9 -1 50% 8 75.23 0.0
04 01:11 SW 9 16.09 Fair CLR 9 -0.2 53% 8 75.31 0.0
04 00:54 SW 9 16.09 Fair CLR 8.7 -0.1 18.8 8.7 54% 7 75.31 0.0
03 23:29 SW 9 16.09 Fair CLR 10.3 0 49% 75.34 0.0
03 17:16 SW 26 G 37 16.09 Fair CLR 19.3 -2.3 23% 75.31 0.0
03 16:54 SW 28 G 37 16.09 Fair CLR 19.3 -3 22% 75.31 0.0
03 16:35 SW 28 16.09 Fair CLR 19.2 -3.2 22% 75.34 0.0
03 16:17 SW 33 G 41 16.09 Fair and Breezy CLR 19.3 -2.5 23% 75.34 0.0
03 13:37 SW 41 G 56 16.09 Fair and Breezy CLR 17.4 -3.9 23% 75.49 0.0
03 12:54 SW 39 G 67 16.09 Fair and Breezy CLR 16.7 -4.9 16.9 8.4 23% 75.51 0.0
03 11:46 S 35 G 54 16.09 Fair and Breezy CLR 15.3 -0.7 34% 75.62 0.0
03 11:29 S 39 G 46 16.09 Fair and Breezy CLR 14.2 0 38% 75.62 0.0
03 10:13 S 24 G 33 16.09 Light Rain OVC070 10.7 0.4 49% 75.72 0.0
03 09:46 SW 28 G 35 16.09 Overcast OVC075 11.2 -0.6 44% 75.72 0.0
03 09:27 SW 20 16.09 Overcast OVC065 10.8 -0.5 46% 75.72 0.0
03 09:15 SW 24 16.09 Overcast BKN065 OVC075 11 -1 44% 75.72 0.0
03 08:55 SW 28 G 44 16.09 Mostly Cloudy SCT085 BKN090 11.2 -1.5 42% 75.74 0.0
03 08:35 SW 35 G 46 16.09 Mostly Cloudy and Breezy BKN090 11 -2.1 40% 75.74 0.0
03 08:15 SW 28 16.09 Mostly Cloudy BKN090 BKN120 10.5 -2.7 40% 75.77 0.0
03 07:55 SW 26 16.09 Partly Cloudy SCT100 10.1 -3.5 39% 75.77 0.0
03 07:35 SW 22 16.09 Overcast OVC100 9.6 -4.1 38% 7 75.77 0.0
03 07:15 SW 17 16.09 Mostly Cloudy BKN100 BKN120 9 -4.3 39% 7 75.79 0.0
03 06:55 SW 13 16.09 Partly Cloudy SCT090 SCT120 8.2 -3.8 9.1 7 43% 6 75.77 0.0
03 06:35 SW 13 16.09 Overcast OVC100 7.8 -4 43% 6 75.79 0.0
03 06:15 S 15 16.09 Mostly Cloudy BKN100 7.3 -4.1 45% 5 75.77 0.0
03 05:55 SW 13 16.09 Mostly Cloudy BKN090 7.1 -4.5 44% 5 75.79 0.0
03 05:41 S 15 16.09 Overcast OVC100 7.6 -4.9 41% 5 75.79 0.0
03 05:17 SW 15 16.09 Overcast OVC100 8 -5.6 38% 6 75.82 0.0
03 04:55 SW 17 16.09 Overcast OVC090 8.2 -5.8 37% 6 75.82 0.0
03 04:35 SW 17 16.09 Overcast SCT070 OVC100 8.5 -6.3 35% 6 75.84 0.0
Date Time (cdt) Wind (kph) Vis. (km) Weather Sky Cond. Air Dwpt Max. Min. Relative Humidity Wind Chill (°C) Heat Index (°C) altimeter (cm) sea level (mb) 1 hr 3 hr 6 hr
6 hour
Temperature (ºC) Pressure Precipitation (cm)